Weather at Dalaman International Airport

Public forecast

Using degrees Celsius for public forecast. Weather courtesy of forecast.io.

Current aviation weather report (METAR) for Dalaman International Airport

Retrieved 2020/11/25 10:20 UTC (17 minutes ago):

LTBS 251020Z 31004KT 280V340 9999 FEW030 SCT180 20/06 Q1011 NOSIG RMK RWY19 30005KT 270V340 1CU030 3CI180

Aviation forecast (TAF) for Dalaman International Airport

Retrieved 2020/11/25 06:03 UTC (5 hours ago):

TAF LTBS 250440Z 2506/2606 VRB02KT 9999 FEW030 BKN100 BECMG 2515/2517 CAVOK